Parker, Illinois
Current Conditions -  °F | °C
As of 6:53 AM on Tuesday 21 Oct 2014 (Local Time) from KMTO Reporting Station
Few Clouds Few Clouds  
Wind Chill: 38°   Ceiling: Unl
Heat Index: 41°   Visibility: 10mi
Dew Point: 40°   Wind: 5mph
Humidity: 96%   Direction: 330°NNW
Pressure: 30.07"   Gusts: NA
Location:  39.4316°N, 88.0561°W
Report Text: KMTO 211153Z AUTO 33004KT 10SM FEW048 05/04 A3007 RMK AO2 SLP184 T00500044 10089 20050 53018
Loading
Personal Weather Stations






























Interactive Weather Map
Tropical Storm Tracking
New forecast layout! Learn more

10-Day Weather Forecast

Advertisements
Track Severe Weather on mobile